Time;durP1;ratioP1;P1;durP2;ratioP2;P2;SDS_P1;SDS_P2;PMS_P1;PMS_P2;Temp;Humidity;BMP_temperature;BMP_pressure;BME280_temperature;BME280_humidity;BME280_pressure;Samples;Min_cycle;Max_cycle;Signal;HPM_P1;HPM_P2
2022/06/07 00:00:05;;;;;;;8.98;3.15;;;;;;;;;;4971466;28;20054;-65
2022/06/07 00:02:33;;;;;;;5.80;2.37;;;;;;;;;;4969167;28;20121;-66
2022/06/07 00:05:00;;;;;;;6.47;3.05;;;;;;;;;;4987263;28;20058;-66
2022/06/07 00:07:28;;;;;;;5.50;2.90;;;;;;;;;;4970350;28;20038;-66
2022/06/07 00:09:54;;;;;;;6.43;3.45;;;;;;;;;;4967517;28;20061;-67
2022/06/07 00:12:21;;;;;;;7.05;2.65;;;;;;;;;;4971497;28;20053;-66
2022/06/07 00:14:49;;;;;;;6.25;2.80;;;;;;;;;;4967794;28;20062;-65
2022/06/07 00:17:15;;;;;;;5.82;3.00;;;;;;;;;;4971449;28;20058;-66
2022/06/07 00:19:42;;;;;;;10.05;4.88;;;;;;;;;;4967285;28;20058;-65
2022/06/07 00:22:09;;;;;;;12.68;5.40;;;;;;;;;;4970910;28;20046;-66
2022/06/07 00:24:37;;;;;;;11.07;5.75;;;;;;;;;;4975398;28;20054;-66
2022/06/07 00:27:04;;;;;;;16.55;7.72;;;;;;;;;;4971790;28;20054;-65
2022/06/07 00:29:31;;;;;;;15.27;7.70;;;;;;;;;;4968366;28;20069;-65
2022/06/07 00:31:59;;;;;;;13.50;6.15;;;;;;;;;;4972055;28;20064;-65
2022/06/07 00:34:26;;;;;;;11.98;4.85;;;;;;;;;;4967893;28;20054;-65
2022/06/07 00:36:53;;;;;;;15.38;7.00;;;;;;;;;;4972041;28;20113;-65
2022/06/07 00:39:19;;;;;;;11.32;6.38;;;;;;;;;;4967499;28;20141;-65
2022/06/07 00:41:47;;;;;;;15.95;7.88;;;;;;;;;;4965698;28;20082;-66
2022/06/07 00:44:22;;;;;;;9.57;4.93;;;;;;;;;;4950148;28;20061;-66
2022/06/07 00:46:49;;;;;;;17.10;8.85;;;;;;;;;;4951783;28;20162;-67
2022/06/07 00:49:16;;;;;;;10.50;4.70;;;;;;;;;;4968093;28;20053;-66
2022/06/07 00:51:44;;;;;;;12.60;6.75;;;;;;;;;;4966704;28;20140;-66
2022/06/07 00:54:10;;;;;;;9.53;5.07;;;;;;;;;;4971062;28;20057;-67
2022/06/07 00:56:37;;;;;;;13.57;7.40;;;;;;;;;;4967378;28;20061;-67
2022/06/07 00:59:05;;;;;;;13.68;7.55;;;;;;;;;;4970998;28;20058;-66
2022/06/07 01:01:32;;;;;;;14.80;7.97;;;;;;;;;;4953453;28;20051;-66
2022/06/07 01:03:58;;;;;;;16.73;8.23;;;;;;;;;;4951593;28;20065;-67
2022/06/07 01:11:55;;;;;;;26.08;8.70;;;;;;;;;;4961812;28;20058;-67
2022/06/07 01:14:23;;;;;;;17.65;9.50;;;;;;;;;;4973609;28;20157;-67
2022/06/07 01:16:50;;;;;;;9.73;4.88;;;;;;;;;;4968270;28;20046;-67
2022/06/07 01:19:17;;;;;;;18.75;7.68;;;;;;;;;;4971080;28;20057;-68
2022/06/07 01:21:46;;;;;;;19.67;8.95;;;;;;;;;;4965215;28;20081;-66
2022/06/07 01:24:13;;;;;;;15.40;8.25;;;;;;;;;;4969602;28;20058;-65
2022/06/07 01:26:40;;;;;;;7.80;4.15;;;;;;;;;;4983619;28;20058;-67
2022/06/07 01:29:07;;;;;;;15.10;7.35;;;;;;;;;;4955784;28;20082;-66
2022/06/07 01:31:34;;;;;;;14.82;6.45;;;;;;;;;;4951461;28;20054;-66
2022/06/07 01:34:01;;;;;;;17.60;8.70;;;;;;;;;;4971161;28;20058;-65
2022/06/07 01:36:28;;;;;;;8.35;4.40;;;;;;;;;;4970472;28;20054;-65
2022/06/07 01:41:55;;;;;;;11.88;6.18;;;;;;;;;;4970539;28;20140;-66
2022/06/07 01:44:25;;;;;;;15.30;7.10;;;;;;;;;;4956583;28;20061;-66
2022/06/07 01:46:53;;;;;;;20.65;7.07;;;;;;;;;;4968006;28;20389;-65
2022/06/07 01:49:20;;;;;;;11.45;5.13;;;;;;;;;;4970962;28;20062;-65
2022/06/07 01:51:46;;;;;;;9.05;4.38;;;;;;;;;;4953092;28;20078;-67
2022/06/07 01:54:16;;;;;;;12.68;5.65;;;;;;;;;;4953446;28;20062;-66
2022/06/07 01:56:42;;;;;;;12.00;6.28;;;;;;;;;;4954566;28;20174;-66
2022/06/07 01:59:09;;;;;;;10.20;4.32;;;;;;;;;;4949966;28;20050;-66
2022/06/07 02:01:38;;;;;;;11.73;5.93;;;;;;;;;;4956684;28;20055;-66
2022/06/07 02:04:05;;;;;;;13.48;6.45;;;;;;;;;;4962600;28;20073;-65
2022/06/07 02:06:31;;;;;;;12.85;5.32;;;;;;;;;;4970707;28;20059;-67
2022/06/07 02:08:58;;;;;;;16.25;8.00;;;;;;;;;;4958333;28;20069;-65
2022/06/07 02:11:27;;;;;;;14.50;7.30;;;;;;;;;;4955052;28;20061;-66
2022/06/07 02:13:54;;;;;;;10.70;5.38;;;;;;;;;;4966140;28;20073;-66
2022/06/07 02:16:21;;;;;;;12.85;6.28;;;;;;;;;;4955198;28;20059;-65
2022/06/07 02:18:47;;;;;;;14.90;8.23;;;;;;;;;;4963818;28;20059;-65
2022/06/07 02:21:15;;;;;;;19.63;6.97;;;;;;;;;;4959018;28;20074;-65
2022/06/07 02:23:42;;;;;;;21.20;9.25;;;;;;;;;;4960866;28;20035;-66
2022/06/07 02:26:12;;;;;;;21.83;9.73;;;;;;;;;;4952112;29;20484;-66
2022/06/07 02:28:41;;;;;;;13.90;6.88;;;;;;;;;;4953053;28;20050;-65
2022/06/07 02:31:09;;;;;;;20.92;9.35;;;;;;;;;;4980567;28;20057;-65
2022/06/07 02:33:37;;;;;;;27.40;10.70;;;;;;;;;;4963985;28;20046;-65
2022/06/07 02:36:05;;;;;;;14.80;8.10;;;;;;;;;;4997012;28;20058;-65
2022/06/07 02:38:31;;;;;;;11.70;5.97;;;;;;;;;;5007194;28;20076;-65
2022/06/07 02:40:58;;;;;;;12.52;6.78;;;;;;;;;;4953116;28;20062;-66
2022/06/07 02:43:25;;;;;;;12.05;6.30;;;;;;;;;;4932722;29;20043;-66
2022/06/07 02:45:53;;;;;;;17.10;8.75;;;;;;;;;;4954178;28;20160;-68
2022/06/07 02:48:20;;;;;;;16.58;8.55;;;;;;;;;;4970677;28;20051;-67
2022/06/07 02:50:47;;;;;;;14.10;7.65;;;;;;;;;;4939247;28;20052;-67
2022/06/07 02:53:14;;;;;;;21.08;9.60;;;;;;;;;;4932161;29;20065;-67
2022/06/07 02:55:41;;;;;;;16.98;9.70;;;;;;;;;;4949691;28;20070;-67
2022/06/07 02:58:07;;;;;;;16.40;8.27;;;;;;;;;;4987778;28;20050;-67
2022/06/07 03:00:34;;;;;;;19.77;9.90;;;;;;;;;;4960411;28;20080;-67
2022/06/07 03:03:02;;;;;;;19.08;9.95;;;;;;;;;;4954511;28;20057;-66
2022/06/07 03:05:29;;;;;;;17.67;7.93;;;;;;;;;;4945433;28;20054;-66
2022/06/07 03:07:55;;;;;;;17.88;7.35;;;;;;;;;;4945105;29;20094;-66
2022/06/07 03:10:22;;;;;;;16.60;9.82;;;;;;;;;;4946511;28;20055;-65
2022/06/07 03:12:50;;;;;;;23.27;9.32;;;;;;;;;;4950422;28;20051;-67
2022/06/07 03:15:17;;;;;;;13.70;6.88;;;;;;;;;;4962940;28;20062;-65
2022/06/07 03:17:44;;;;;;;19.15;9.27;;;;;;;;;;4972347;28;20050;-65
2022/06/07 03:20:13;;;;;;;21.63;10.07;;;;;;;;;;4973280;28;20145;-67
2022/06/07 03:22:42;;;;;;;19.05;9.70;;;;;;;;;;4955222;28;20046;-65
2022/06/07 03:25:10;;;;;;;14.05;8.18;;;;;;;;;;4972623;28;20058;-66
2022/06/07 03:27:38;;;;;;;21.25;9.10;;;;;;;;;;4983372;28;20054;-66
2022/06/07 03:30:06;;;;;;;20.65;10.52;;;;;;;;;;4972365;28;20054;-66
2022/06/07 03:32:33;;;;;;;17.38;8.85;;;;;;;;;;4966570;28;20057;-67
2022/06/07 03:35:00;;;;;;;16.05;9.52;;;;;;;;;;4972173;28;20050;-66
2022/06/07 03:37:28;;;;;;;15.80;7.80;;;;;;;;;;4970262;28;20150;-66
2022/06/07 03:39:54;;;;;;;16.05;8.07;;;;;;;;;;4953141;28;20050;-66
2022/06/07 03:42:21;;;;;;;11.55;6.68;;;;;;;;;;4961831;28;20054;-66
2022/06/07 03:44:48;;;;;;;15.25;8.43;;;;;;;;;;4986404;28;20058;-66
2022/06/07 03:47:15;;;;;;;21.30;9.15;;;;;;;;;;4983182;28;20065;-66
2022/06/07 03:49:42;;;;;;;14.20;6.93;;;;;;;;;;4972359;28;20126;-67
2022/06/07 03:52:08;;;;;;;14.45;7.47;;;;;;;;;;4961277;28;20050;-66
2022/06/07 03:54:38;;;;;;;16.08;8.25;;;;;;;;;;4955975;28;20050;-65
2022/06/07 03:57:05;;;;;;;11.70;6.72;;;;;;;;;;4961130;28;20046;-67
2022/06/07 03:59:32;;;;;;;13.82;7.20;;;;;;;;;;4971536;28;20054;-66
2022/06/07 04:01:59;;;;;;;15.18;7.07;;;;;;;;;;4963584;28;20050;-67
2022/06/07 04:04:26;;;;;;;15.13;7.25;;;;;;;;;;4967489;28;20054;-65
2022/06/07 04:09:39;;;;;;;12.98;5.75;;;;;;;;;;4985610;28;20473;-66
2022/06/07 04:12:05;;;;;;;;;;;;;;;;;;4968857;28;20053;-66
2022/06/07 04:14:33;;;;;;;14.60;7.03;;;;;;;;;;4961729;28;19996;-67
2022/06/07 04:16:59;;;;;;;13.57;6.83;;;;;;;;;;4968344;28;20081;-66
2022/06/07 04:19:26;;;;;;;10.52;5.57;;;;;;;;;;4960653;28;20054;-66
2022/06/07 04:21:53;;;;;;;12.80;6.85;;;;;;;;;;4969262;28;20062;-67
2022/06/07 04:24:19;;;;;;;17.13;7.82;;;;;;;;;;4956711;28;20078;-66
2022/06/07 04:26:48;;;;;;;11.25;6.10;;;;;;;;;;4965813;28;20667;-66
2022/06/07 04:29:14;;;;;;;12.60;6.13;;;;;;;;;;4976233;28;20054;-66
2022/06/07 04:31:41;;;;;;;12.63;5.72;;;;;;;;;;4964151;28;20076;-65
2022/06/07 04:34:08;;;;;;;12.65;5.88;;;;;;;;;;4976561;28;20055;-66
2022/06/07 04:36:36;;;;;;;11.13;5.80;;;;;;;;;;4966590;28;20058;-66
2022/06/07 04:39:04;;;;;;;11.55;6.43;;;;;;;;;;4960184;28;20055;-66
2022/06/07 04:41:30;;;;;;;13.95;6.20;;;;;;;;;;4964895;28;20074;-65
2022/06/07 04:43:58;;;;;;;26.90;12.48;;;;;;;;;;4974339;28;20055;-66
2022/06/07 04:46:26;;;;;;;17.67;8.40;;;;;;;;;;4961392;28;20093;-66
2022/06/07 04:48:53;;;;;;;16.23;8.20;;;;;;;;;;4959280;28;20050;-65
2022/06/07 04:51:21;;;;;;;15.25;7.43;;;;;;;;;;4964248;28;20062;-65
2022/06/07 04:53:48;;;;;;;17.25;7.97;;;;;;;;;;4966422;28;20051;-65
2022/06/07 04:56:16;;;;;;;13.55;6.82;;;;;;;;;;4960331;28;20055;-65
2022/06/07 04:58:43;;;;;;;17.88;7.20;;;;;;;;;;4967564;28;20078;-65
2022/06/07 05:01:11;;;;;;;14.95;7.25;;;;;;;;;;4949430;28;20055;-66
2022/06/07 05:03:38;;;;;;;19.00;9.38;;;;;;;;;;4963743;28;20066;-66
2022/06/07 05:06:15;;;;;;;12.50;6.47;;;;;;;;;;4943107;28;20051;-65
2022/06/07 05:08:42;;;;;;;15.30;7.47;;;;;;;;;;4962702;28;20050;-65
2022/06/07 05:11:09;;;;;;;13.10;7.20;;;;;;;;;;4942416;28;20055;-66
2022/06/07 05:13:38;;;;;;;13.57;7.30;;;;;;;;;;4979189;28;20051;-65
2022/06/07 05:16:05;;;;;;;16.13;8.10;;;;;;;;;;4963576;28;20060;-65
2022/06/07 05:18:33;;;;;;;17.95;8.38;;;;;;;;;;4947004;28;20114;-66
2022/06/07 05:21:01;;;;;;;15.20;8.00;;;;;;;;;;4958586;28;20055;-66
2022/06/07 05:23:27;;;;;;;17.55;9.38;;;;;;;;;;4947924;29;20051;-65
2022/06/07 05:25:56;;;;;;;11.35;6.72;;;;;;;;;;4949823;28;20059;-66
2022/06/07 05:28:22;;;;;;;15.32;7.93;;;;;;;;;;4964005;28;20115;-66
2022/06/07 05:30:49;;;;;;;18.67;9.52;;;;;;;;;;4958269;28;20063;-66
2022/06/07 05:33:16;;;;;;;14.60;7.85;;;;;;;;;;4964402;28;20051;-66
2022/06/07 05:35:44;;;;;;;18.38;8.45;;;;;;;;;;4959698;28;20055;-65
2022/06/07 05:38:12;;;;;;;13.13;6.63;;;;;;;;;;4967239;28;20057;-66
2022/06/07 05:40:39;;;;;;;18.02;8.23;;;;;;;;;;4966854;28;20054;-65
2022/06/07 05:43:06;;;;;;;15.65;7.38;;;;;;;;;;4963943;28;20132;-66
2022/06/07 05:45:32;;;;;;;12.75;7.35;;;;;;;;;;4965259;28;20066;-66
2022/06/07 05:47:59;;;;;;;12.43;6.38;;;;;;;;;;4957666;28;20063;-66
2022/06/07 05:50:26;;;;;;;12.13;6.88;;;;;;;;;;4966855;28;20054;-65
2022/06/07 05:52:54;;;;;;;16.70;8.45;;;;;;;;;;4962841;28;20047;-66
2022/06/07 05:55:20;;;;;;;18.65;9.85;;;;;;;;;;4968670;28;20054;-66
2022/06/07 05:57:50;;;;;;;20.30;9.60;;;;;;;;;;4951125;28;20051;-65
2022/06/07 06:00:17;;;;;;;12.05;6.35;;;;;;;;;;4953360;28;20082;-66
2022/06/07 06:02:44;;;;;;;19.75;8.88;;;;;;;;;;4952685;28;20058;-66
2022/06/07 06:05:11;;;;;;;16.25;8.27;;;;;;;;;;4964530;28;20047;-68
2022/06/07 06:10:19;;;;;;;17.05;7.82;;;;;;;;;;4961247;28;20055;-66
2022/06/07 06:10:26;;;;;;;24.33;8.20;;;;;;;;;;4965097;28;20102;-66
2022/06/07 06:12:53;;;;;;;11.10;6.95;;;;;;;;;;4963798;28;20069;-66
2022/06/07 06:15:20;;;;;;;14.88;7.40;;;;;;;;;;4968865;28;20050;-66
2022/06/07 06:17:47;;;;;;;13.30;6.90;;;;;;;;;;4962071;28;20050;-66
2022/06/07 06:20:14;;;;;;;17.58;7.85;;;;;;;;;;5001308;28;20057;-66
2022/06/07 06:22:41;;;;;;;16.35;9.25;;;;;;;;;;4967805;28;20050;-66
2022/06/07 06:25:09;;;;;;;21.70;9.35;;;;;;;;;;4979298;28;20081;-66
2022/06/07 06:27:37;;;;;;;17.25;8.23;;;;;;;;;;4998709;28;20058;-66
2022/06/07 06:30:04;;;;;;;11.77;6.13;;;;;;;;;;4935399;29;20051;-66
2022/06/07 06:32:31;;;;;;;23.15;10.57;;;;;;;;;;4935049;29;20095;-66
2022/06/07 06:34:58;;;;;;;13.98;7.25;;;;;;;;;;4965296;28;20050;-66
2022/06/07 06:37:27;;;;;;;13.77;6.82;;;;;;;;;;4973852;28;20085;-66
2022/06/07 06:39:53;;;;;;;14.63;7.10;;;;;;;;;;4960071;28;20050;-66
2022/06/07 06:42:20;;;;;;;16.23;7.93;;;;;;;;;;4966202;28;20110;-66
2022/06/07 06:44:48;;;;;;;17.92;7.00;;;;;;;;;;4981750;28;20050;-65
2022/06/07 06:47:15;;;;;;;24.77;9.35;;;;;;;;;;4973494;28;20050;-65
2022/06/07 06:49:42;;;;;;;13.07;7.40;;;;;;;;;;4956475;28;20078;-66
2022/06/07 06:52:09;;;;;;;15.70;6.85;;;;;;;;;;4971201;28;20055;-66
2022/06/07 06:54:36;;;;;;;19.52;8.40;;;;;;;;;;4964825;28;20047;-66
2022/06/07 06:57:03;;;;;;;16.65;8.15;;;;;;;;;;4970174;28;20074;-66
2022/06/07 06:59:30;;;;;;;12.25;6.88;;;;;;;;;;4964954;28;20059;-66
2022/06/07 07:01:59;;;;;;;12.10;7.22;;;;;;;;;;4969740;28;20051;-66
2022/06/07 07:04:26;;;;;;;18.85;7.80;;;;;;;;;;4964684;28;20054;-66
2022/06/07 07:06:53;;;;;;;13.90;7.25;;;;;;;;;;4970119;28;20493;-66
2022/06/07 07:09:22;;;;;;;17.88;8.15;;;;;;;;;;4965202;28;20137;-65
2022/06/07 07:11:50;;;;;;;12.98;7.00;;;;;;;;;;4970603;28;20054;-66
2022/06/07 07:14:17;;;;;;;14.87;8.07;;;;;;;;;;4971101;28;20051;-66
2022/06/07 07:16:44;;;;;;;16.35;9.27;;;;;;;;;;4974841;28;20061;-66
2022/06/07 07:19:13;;;;;;;22.00;9.90;;;;;;;;;;4938164;29;20051;-66
2022/06/07 07:21:40;;;;;;;16.67;8.50;;;;;;;;;;4943757;28;20055;-66
2022/06/07 07:24:10;;;;;;;17.23;9.10;;;;;;;;;;4936994;29;20071;-66
2022/06/07 07:26:37;;;;;;;17.40;8.55;;;;;;;;;;4940951;28;20066;-65
2022/06/07 07:29:04;;;;;;;16.58;7.45;;;;;;;;;;4950760;29;20074;-65
2022/06/07 07:31:32;;;;;;;13.75;7.05;;;;;;;;;;4942014;28;20062;-65
2022/06/07 07:33:59;;;;;;;21.25;9.00;;;;;;;;;;4950833;29;20074;-65
2022/06/07 07:36:28;;;;;;;14.88;7.28;;;;;;;;;;4935228;28;20055;-65
2022/06/07 07:38:54;;;;;;;22.15;9.25;;;;;;;;;;4930875;29;20091;-65
2022/06/07 07:41:22;;;;;;;22.38;8.98;;;;;;;;;;4935123;28;20082;-65
2022/06/07 07:43:50;;;;;;;24.10;9.13;;;;;;;;;;4950455;29;20062;-65
2022/06/07 07:46:18;;;;;;;32.10;10.80;;;;;;;;;;4940819;28;20061;-65
2022/06/07 07:48:45;;;;;;;19.50;9.55;;;;;;;;;;4932840;29;20047;-66
2022/06/07 07:51:15;;;;;;;20.20;9.82;;;;;;;;;;4930221;28;20058;-65
2022/06/07 07:53:44;;;;;;;19.80;9.32;;;;;;;;;;4950196;28;20047;-65
2022/06/07 07:56:10;;;;;;;;;;;;;;;;;;4944524;28;20118;-65
2022/06/07 07:58:37;;;;;;;20.70;8.43;;;;;;;;;;4949907;29;19926;-65
2022/06/07 08:01:08;;;;;;;16.52;8.23;;;;;;;;;;4949582;29;20113;-65
2022/06/07 08:03:34;;;;;;;18.30;8.48;;;;;;;;;;4958545;28;20048;-65
2022/06/07 08:06:01;;;;;;;20.10;9.38;;;;;;;;;;4930857;29;20102;-65
2022/06/07 08:08:27;;;;;;;13.57;7.80;;;;;;;;;;4925061;28;20055;-65
2022/06/07 08:10:56;;;;;;;21.17;10.48;;;;;;;;;;4931668;28;20056;-66
2022/06/07 08:13:23;;;;;;;16.23;8.93;;;;;;;;;;4924819;28;20197;-65
2022/06/07 08:15:49;;;;;;;15.13;8.85;;;;;;;;;;4946732;29;20058;-65
2022/06/07 08:18:16;;;;;;;14.07;6.85;;;;;;;;;;4947198;28;20055;-65
2022/06/07 08:20:43;;;;;;;12.90;7.38;;;;;;;;;;4933172;28;20044;-65
2022/06/07 08:23:12;;;;;;;15.25;7.03;;;;;;;;;;4943462;28;20078;-65
2022/06/07 08:25:39;;;;;;;16.77;7.55;;;;;;;;;;4948798;28;20050;-65
2022/06/07 08:28:07;;;;;;;14.20;6.43;;;;;;;;;;4936538;28;20170;-65
2022/06/07 08:30:34;;;;;;;14.00;6.20;;;;;;;;;;4929650;29;20147;-65
2022/06/07 08:37:32;;;;;;;10.98;5.72;;;;;;;;;;4925104;28;20063;-65
2022/06/07 08:38:32;;;;;;;10.85;5.65;;;;;;;;;;4932163;28;20187;-66
2022/06/07 08:40:58;;;;;;;13.70;5.60;;;;;;;;;;4949068;29;20190;-65
2022/06/07 08:43:26;;;;;;;11.45;6.32;;;;;;;;;;4938791;28;20135;-65
2022/06/07 08:45:53;;;;;;;10.13;5.88;;;;;;;;;;4930061;29;20051;-66
2022/06/07 08:48:22;;;;;;;9.75;5.25;;;;;;;;;;4918455;28;20048;-65
2022/06/07 08:50:54;;;;;;;10.77;5.35;;;;;;;;;;4930647;29;20066;-65
2022/06/07 08:53:30;;;;;;;9.90;4.97;;;;;;;;;;4925050;28;20048;-65
2022/06/07 08:55:59;;;;;;;8.98;5.22;;;;;;;;;;4929891;29;20142;-65
2022/06/07 08:58:29;;;;;;;10.27;5.22;;;;;;;;;;4925852;28;20051;-65
2022/06/07 09:00:57;;;;;;;16.67;5.05;;;;;;;;;;4930500;29;20047;-65
2022/06/07 09:03:32;;;;;;;12.45;5.13;;;;;;;;;;4930908;29;20050;-65
2022/06/07 09:06:00;;;;;;;10.82;4.57;;;;;;;;;;4927301;29;20071;-65
2022/06/07 09:08:30;;;;;;;8.63;4.40;;;;;;;;;;4930060;29;20075;-65
2022/06/07 09:13:46;;;;;;;;;;;;;;;;;;4947548;28;20069;-65
2022/06/07 09:16:14;;;;;;;8.02;3.90;;;;;;;;;;4925593;28;19950;-65
2022/06/07 09:18:41;;;;;;;9.73;4.90;;;;;;;;;;4956287;28;20074;-65
2022/06/07 09:21:09;;;;;;;9.82;4.65;;;;;;;;;;4975589;28;20050;-65
2022/06/07 09:23:42;;;;;;;9.87;4.30;;;;;;;;;;4969171;28;20042;-65
2022/06/07 09:26:15;;;;;;;8.93;4.32;;;;;;;;;;4964806;28;20138;-65
2022/06/07 09:28:42;;;;;;;9.93;4.95;;;;;;;;;;4951693;28;20059;-65
2022/06/07 09:31:14;;;;;;;9.02;4.10;;;;;;;;;;4961836;28;20086;-65
2022/06/07 09:33:51;;;;;;;9.32;4.93;;;;;;;;;;4968071;28;20054;-65
2022/06/07 09:36:19;;;;;;;7.32;4.18;;;;;;;;;;4979307;28;20069;-65
2022/06/07 09:38:48;;;;;;;7.75;4.13;;;;;;;;;;4984818;28;20117;-65
2022/06/07 09:43:55;;;;;;;9.65;4.10;;;;;;;;;;4948017;28;19930;-65
2022/06/07 09:46:24;;;;;;;8.95;4.60;;;;;;;;;;4952348;28;20071;-65
2022/06/07 09:48:52;;;;;;;13.60;6.47;;;;;;;;;;4983627;28;20050;-65
2022/06/07 09:51:21;;;;;;;14.23;6.57;;;;;;;;;;4954300;28;20066;-65
2022/06/07 09:53:57;;;;;;;9.85;5.00;;;;;;;;;;4948487;29;20059;-65
2022/06/07 09:56:26;;;;;;;10.02;5.65;;;;;;;;;;4944527;28;20055;-64
2022/06/07 09:59:02;;;;;;;11.18;6.00;;;;;;;;;;4952202;29;20089;-65
2022/06/07 10:01:31;;;;;;;9.80;5.15;;;;;;;;;;4951113;28;20051;-65
2022/06/07 10:04:05;;;;;;;9.15;4.88;;;;;;;;;;4987321;28;20065;-65
2022/06/07 10:06:33;;;;;;;10.70;4.70;;;;;;;;;;4961981;28;20058;-65
2022/06/07 10:09:15;;;;;;;13.15;4.35;;;;;;;;;;4954746;28;20149;-65
2022/06/07 10:11:44;;;;;;;8.63;4.65;;;;;;;;;;4964101;28;20038;-65
2022/06/07 10:14:21;;;;;;;9.05;4.57;;;;;;;;;;4955356;28;20046;-65
2022/06/07 10:16:55;;;;;;;11.18;4.90;;;;;;;;;;4948134;28;20070;-65
2022/06/07 10:19:32;;;;;;;12.15;5.20;;;;;;;;;;4955136;28;20114;-65
2022/06/07 10:22:09;;;;;;;12.98;5.60;;;;;;;;;;4946853;28;20134;-65
2022/06/07 10:24:42;;;;;;;11.95;5.32;;;;;;;;;;4953930;28;20059;-65
2022/06/07 10:27:13;;;;;;;11.68;5.40;;;;;;;;;;4949580;28;20046;-65
2022/06/07 10:29:54;;;;;;;12.15;6.10;;;;;;;;;;4955472;28;20051;-65
2022/06/07 10:32:27;;;;;;;12.57;5.43;;;;;;;;;;4949272;28;20071;-65
2022/06/07 10:34:57;;;;;;;10.23;5.03;;;;;;;;;;4953950;28;20061;-65
2022/06/07 10:37:26;;;;;;;11.60;5.80;;;;;;;;;;4948489;28;20078;-65
2022/06/07 10:40:00;;;;;;;13.88;5.68;;;;;;;;;;4936163;29;20055;-65
2022/06/07 10:42:34;;;;;;;12.77;6.45;;;;;;;;;;4932231;28;20047;-65
2022/06/07 10:45:14;;;;;;;10.05;4.60;;;;;;;;;;4936392;29;20062;-65
2022/06/07 10:47:44;;;;;;;10.30;5.20;;;;;;;;;;4948952;28;20059;-65
2022/06/07 10:50:17;;;;;;;14.52;6.40;;;;;;;;;;4936078;29;20139;-65
2022/06/07 10:52:48;;;;;;;12.02;5.78;;;;;;;;;;4934477;29;20052;-65
2022/06/07 10:55:19;;;;;;;9.40;4.65;;;;;;;;;;4933540;28;20164;-65
2022/06/07 10:57:53;;;;;;;11.45;5.80;;;;;;;;;;4936150;28;20047;-65
2022/06/07 11:00:30;;;;;;;11.88;5.78;;;;;;;;;;4931237;28;20051;-65
2022/06/07 11:03:02;;;;;;;13.00;6.47;;;;;;;;;;4936884;29;20059;-65
2022/06/07 11:11:06;;;;;;;15.73;8.07;;;;;;;;;;4934583;29;20101;-65
2022/06/07 11:13:36;;;;;;;21.33;10.50;;;;;;;;;;4950637;29;20047;-65
2022/06/07 11:16:05;;;;;;;13.75;6.25;;;;;;;;;;4964190;28;20065;-65
2022/06/07 11:18:32;;;;;;;14.95;5.75;;;;;;;;;;4935014;29;20055;-65
2022/06/07 11:21:12;;;;;;;11.55;5.78;;;;;;;;;;4930001;28;20055;-65
2022/06/07 11:23:45;;;;;;;10.80;5.30;;;;;;;;;;4934521;29;20062;-65
2022/06/07 11:26:14;;;;;;;15.20;7.05;;;;;;;;;;4928611;28;20055;-65
2022/06/07 11:28:44;;;;;;;12.32;6.30;;;;;;;;;;4934457;29;20064;-65
2022/06/07 11:31:25;;;;;;;11.25;6.18;;;;;;;;;;4929053;28;20048;-64
2022/06/07 11:34:11;;;;;;;14.07;8.20;;;;;;;;;;4949000;28;20051;-65
2022/06/07 11:36:41;;;;;;;13.82;7.07;;;;;;;;;;4945748;28;20082;-65
2022/06/07 11:39:29;;;;;;;14.02;7.05;;;;;;;;;;4953390;28;20142;-66
2022/06/07 11:41:56;;;;;;;13.57;5.53;;;;;;;;;;4947186;28;20074;-65
2022/06/07 11:44:38;;;;;;;9.87;5.30;;;;;;;;;;4953585;28;20322;-66
2022/06/07 11:47:22;;;;;;;13.90;6.88;;;;;;;;;;4927967;28;20067;-66
2022/06/07 11:49:57;;;;;;;15.13;6.88;;;;;;;;;;4933903;29;20055;-66
2022/06/07 11:52:27;;;;;;;16.02;6.75;;;;;;;;;;4928434;29;20055;-66
2022/06/07 11:54:56;;;;;;;14.55;7.18;;;;;;;;;;4949585;29;20066;-65
2022/06/07 11:57:22;;;;;;;;;;;;;;;;;;4929599;28;20057;-66
2022/06/07 11:59:50;;;;;;;14.30;8.13;;;;;;;;;;4934265;29;20435;-66
2022/06/07 12:02:26;;;;;;;15.88;7.38;;;;;;;;;;4943180;28;20051;-65
2022/06/07 12:05:07;;;;;;;14.75;5.72;;;;;;;;;;4953240;28;20047;-65
2022/06/07 12:07:43;;;;;;;14.32;7.22;;;;;;;;;;4960998;28;20077;-65
2022/06/07 12:10:23;;;;;;;16.02;7.45;;;;;;;;;;4966079;28;20047;-66
2022/06/07 12:12:52;;;;;;;16.27;7.05;;;;;;;;;;4962628;28;20066;-65
2022/06/07 12:15:20;;;;;;;17.45;7.70;;;;;;;;;;4984626;28;20053;-65
2022/06/07 12:17:55;;;;;;;14.00;6.72;;;;;;;;;;4965247;28;20116;-66
2022/06/07 12:20:23;;;;;;;14.77;8.00;;;;;;;;;;4970124;28;20050;-65
2022/06/07 12:22:51;;;;;;;14.20;7.05;;;;;;;;;;4970829;28;20047;-66
2022/06/07 12:25:19;;;;;;;12.98;6.82;;;;;;;;;;4969022;28;20065;-65
2022/06/07 12:27:48;;;;;;;21.73;6.75;;;;;;;;;;4976033;28;20056;-66
2022/06/07 12:30:21;;;;;;;15.65;8.40;;;;;;;;;;4993054;28;20058;-65
2022/06/07 12:32:48;;;;;;;14.05;7.32;;;;;;;;;;4991443;28;20050;-66
2022/06/07 12:35:18;;;;;;;11.88;5.80;;;;;;;;;;4967548;28;20054;-65
2022/06/07 12:37:46;;;;;;;16.08;6.53;;;;;;;;;;4971765;28;20143;-66
2022/06/07 12:40:26;;;;;;;13.95;6.25;;;;;;;;;;4934237;29;20146;-66
2022/06/07 12:42:53;;;;;;;16.30;7.95;;;;;;;;;;4937401;28;20054;-66
2022/06/07 12:45:21;;;;;;;13.43;6.25;;;;;;;;;;4970438;28;20142;-66
2022/06/07 12:47:48;;;;;;;;;;;;;;;;;;4962309;28;20055;-64
2022/06/07 12:50:20;;;;;;;16.70;7.38;;;;;;;;;;4968811;28;19922;-65
2022/06/07 12:52:50;;;;;;;16.95;8.23;;;;;;;;;;4963203;28;20107;-66
2022/06/07 12:55:21;;;;;;;12.60;6.03;;;;;;;;;;4968913;28;20051;-65
2022/06/07 12:57:50;;;;;;;15.57;8.60;;;;;;;;;;4963317;28;20062;-65
2022/06/07 13:00:18;;;;;;;15.25;7.28;;;;;;;;;;4952770;28;20082;-65
2022/06/07 13:02:48;;;;;;;14.30;7.03;;;;;;;;;;4952693;28;20066;-66
2022/06/07 13:05:18;;;;;;;11.85;6.82;;;;;;;;;;4948953;28;20145;-66
2022/06/07 13:07:47;;;;;;;12.85;7.07;;;;;;;;;;4984776;28;20267;-67
2022/06/07 13:10:13;;;;;;;;;;;;;;;;;;4981522;28;20056;-66
2022/06/07 13:12:43;;;;;;;12.75;5.90;;;;;;;;;;4989182;28;20000;-67
2022/06/07 13:15:15;;;;;;;10.65;6.00;;;;;;;;;;4969791;28;20050;-67
2022/06/07 13:17:42;;;;;;;12.55;6.18;;;;;;;;;;4964305;28;20054;-67
2022/06/07 13:20:23;;;;;;;12.45;6.32;;;;;;;;;;4976395;28;20050;-65
2022/06/07 13:22:49;;;;;;;13.10;7.07;;;;;;;;;;4967578;28;20126;-68
2022/06/07 13:25:20;;;;;;;13.05;7.10;;;;;;;;;;4955663;28;20062;-67
2022/06/07 13:27:51;;;;;;;13.95;7.68;;;;;;;;;;4967453;28;20054;-68
2022/06/07 13:30:27;;;;;;;16.48;8.07;;;;;;;;;;4943005;28;20086;-67
2022/06/07 13:33:01;;;;;;;13.65;7.22;;;;;;;;;;4968344;28;20059;-65
2022/06/07 13:35:29;;;;;;;14.73;7.63;;;;;;;;;;4949251;28;20070;-67
2022/06/07 13:38:00;;;;;;;14.15;7.85;;;;;;;;;;4971731;28;20065;-68
2022/06/07 13:40:27;;;;;;;16.10;7.03;;;;;;;;;;4956233;28;20065;-68
2022/06/07 13:43:00;;;;;;;15.35;6.53;;;;;;;;;;4972211;28;20055;-68
2022/06/07 13:45:29;;;;;;;12.60;6.45;;;;;;;;;;4962302;28;20062;-68
2022/06/07 13:48:09;;;;;;;14.90;7.05;;;;;;;;;;4972164;28;20050;-68
2022/06/07 13:53:43;;;;;;;16.75;6.65;;;;;;;;;;4972034;28;20066;-69
2022/06/07 13:56:14;;;;;;;12.65;6.45;;;;;;;;;;4967863;28;20060;-68
2022/06/07 13:58:41;;;;;;;15.15;6.53;;;;;;;;;;4975261;28;20104;-68
2022/06/07 14:01:15;;;;;;;13.27;5.75;;;;;;;;;;4977309;28;20055;-66
2022/06/07 14:03:44;;;;;;;14.35;7.03;;;;;;;;;;4971393;28;20054;-69
2022/06/07 14:06:20;;;;;;;10.88;6.40;;;;;;;;;;4955936;28;20046;-69
2022/06/07 14:08:47;;;;;;;15.35;7.63;;;;;;;;;;4988485;28;20086;-68
2022/06/07 14:11:13;;;;;;;12.02;7.53;;;;;;;;;;4984738;28;20084;-68
2022/06/07 14:13:40;;;;;;;16.15;8.15;;;;;;;;;;4967037;28;20058;-66
2022/06/07 14:16:07;;;;;;;14.15;8.35;;;;;;;;;;4951936;28;20134;-68
2022/06/07 14:18:35;;;;;;;12.52;7.30;;;;;;;;;;4955423;28;20074;-68
2022/06/07 14:21:02;;;;;;;11.35;5.68;;;;;;;;;;4948380;28;20063;-66
2022/06/07 14:23:30;;;;;;;13.48;6.57;;;;;;;;;;4935951;29;20075;-67
2022/06/07 14:25:56;;;;;;;13.87;7.43;;;;;;;;;;4937386;29;20082;-67
2022/06/07 14:28:23;;;;;;;11.25;6.50;;;;;;;;;;4947081;28;20054;-66
2022/06/07 14:30:51;;;;;;;13.40;7.60;;;;;;;;;;4950206;28;20141;-67
2022/06/07 14:33:18;;;;;;;13.35;7.30;;;;;;;;;;4943246;28;20051;-66
2022/06/07 14:35:47;;;;;;;15.32;7.43;;;;;;;;;;4951664;28;20077;-66
2022/06/07 14:38:14;;;;;;;14.45;7.47;;;;;;;;;;4950181;28;20062;-69
2022/06/07 14:40:42;;;;;;;15.73;8.65;;;;;;;;;;4969708;28;20066;-67
2022/06/07 14:43:11;;;;;;;10.95;5.85;;;;;;;;;;4967544;28;20057;-66
2022/06/07 14:45:40;;;;;;;13.35;6.60;;;;;;;;;;4969204;28;20058;-66
2022/06/07 14:48:08;;;;;;;11.75;6.57;;;;;;;;;;4964744;28;20126;-66
2022/06/07 14:50:35;;;;;;;14.90;6.27;;;;;;;;;;4971001;28;20053;-67
2022/06/07 14:53:03;;;;;;;12.65;7.63;;;;;;;;;;4965490;28;20100;-69
2022/06/07 14:55:31;;;;;;;16.35;7.85;;;;;;;;;;4970977;28;20141;-68
2022/06/07 14:57:58;;;;;;;12.85;6.53;;;;;;;;;;4963815;28;20074;-67
2022/06/07 15:00:24;;;;;;;12.65;5.53;;;;;;;;;;4969069;28;20050;-67
2022/06/07 15:02:53;;;;;;;10.85;4.78;;;;;;;;;;4980969;28;20783;-69
2022/06/07 15:05:21;;;;;;;10.55;6.03;;;;;;;;;;4984803;28;20051;-66
2022/06/07 15:07:49;;;;;;;13.18;5.85;;;;;;;;;;4965119;28;20050;-68
2022/06/07 15:10:19;;;;;;;16.42;8.07;;;;;;;;;;4979202;28;20050;-68